(°C)
11°
10°
10°
10°
11°
13°
15°
(°C)
11°
12°
ΝΔ
ΝΔ
ΝΝΔ
ΝΝΔ
ΝΔ
ΝΔ
ΝΔ
(χλμ / ω)
8-12
7-12
7-13
8-13
8-14
9-16
11-17
(χιλιοστά)
0
0
0
0
0
0
0
(%)
0
0
0
0
0
0
0

Ανύψωση ήλιου

/ -20°
sun-icon
UV 3
07:25
18:55
Αύξων αμφίκυρτος (φάση σελήνης) (110°)
17:22
24:00

METAR για Bordenau (ETNW)

Χρόνος Συνθήκες Θερμοκρασία/
Σημείο δρόσου
Άνεμος Ορατότητα Καιρός Νέφη Πίεση Αλλαγή Ανεπεξέργαστο
VFR 11°C / 9°C 240º 2kt >10km - Scattered Clouds 14000ft
Broken Clouds 21000ft
1022 - ETNW 040220Z 24002KT 9999 SCT140 BKN210 11/09 Q1022 BLU+
VFR 11°C / 9°C 240º 3kt >10km - Scattered Clouds 12000ft
Broken Clouds 21000ft
1022 - ETNW 040120Z 24003KT 9999 SCT120 BKN210 11/09 Q1022 BLU+
VFR 11°C / 9°C 260º 4kt >10km - Few Clouds 15000ft
Broken Clouds 21000ft
1023 - ETNW 040020Z 26004KT 9999 FEW150 BKN210 11/09 Q1023 BLU+
VFR 10°C / 9°C 270º 3kt >10km - Few Clouds 2800ft
Broken Clouds 20000ft
1023 - ETNW 032320Z 27003KT 9999 FEW028 BKN200 10/09 Q1023 BLU+
VFR 10°C / 10°C 270º 4kt >10km - Scattered Clouds 2800ft
Broken Clouds 24000ft
1023 - ETNW 032220Z 27004KT 9999 SCT028 BKN240 10/10 Q1023 BLU+
VFR 11°C / 10°C 260º 3kt >10km - Scattered Clouds 2800ft
Broken Clouds 21000ft
1024 - ETNW 032120Z 26003KT 9999 SCT028 BKN210 11/10 Q1024 BLU+
VFR 12°C / 10°C 260º 4kt >10km - Scattered Clouds 3200ft
Broken Clouds 21000ft
1024 - ETNW 032020Z 26004KT 9999 SCT032 BKN210 12/10 Q1024 BLU+
VFR 12°C / 10°C 250º 5kt >10km - Few Clouds 4800ft
Broken Clouds 7000ft
Broken Clouds 25000ft
1024 - ETNW 031920Z 25005KT 9999 FEW048 BKN070 BKN250 12/10 Q1024 BLU
VFR 13°C / 10°C 260º 6kt >10km - Few Clouds 4800ft
Broken Clouds 7000ft
Broken Clouds 25000ft
1024 - ETNW 031820Z 26006KT 9999 FEW048 BKN070 BKN250 13/10 Q1024 BLU
VFR 14°C / 10°C 270º 6kt >10km - Few Clouds 4800ft
Broken Clouds 7000ft
Broken Clouds 25000ft
1024 - ETNW 031720Z 27006KT 9999 FEW048 BKN070 BKN250 14/10 Q1024 BLU
VFR 16°C / 10°C 280º 9kt >10km - Few Clouds 4800ft
Broken Clouds 7000ft
Broken Clouds 25000ft
1024 - ETNW 031520Z 28009KT 9999 FEW048 BKN070 BKN250 16/10 Q1024 BLU
VFR 16°C / 10°C 280º 9kt >10km - Few Clouds 4800ft
Broken Clouds 6000ft
1024 - ETNW 031420Z 28009KT 9999 FEW048 BKN060 16/10 Q1024 BLU
VFR 16°C / 10°C 290º 10kt >10km - Scattered Clouds 4800ft
Broken Clouds 6000ft
1025 - ETNW 031320Z 29010KT 9999 SCT048 BKN060 16/10 Q1025 BLU
VFR 16°C / 10°C 290º 10kt >10km - Scattered Clouds 4400ft
Broken Clouds 5000ft
1025 - ETNW 031220Z 29010KT 9999 SCT044 BKN050 16/10 Q1025 BLU
VFR 16°C / 11°C 280º 10kt >10km - Scattered Clouds 4400ft
Scattered Clouds 6000ft
1025 - ETNW 031020Z 28010KT 9999 SCT044 SCT060 16/11 Q1025 BLU+
VFR 14°C / 11°C 280º 9kt >10km - Few Clouds 4200ft
Scattered Clouds 6000ft
1025 - ETNW 030920Z 28009KT 9999 FEW042 SCT060 14/11 Q1025 BLU+
VFR 13°C / 10°C 290º 8kt >10km - Few Clouds 2400ft 1025 - ETNW 030820Z 29008KT 9999 FEW024 13/10 Q1025 BLU+
VFR 11°C / 11°C 280º 7kt >10km - Few Clouds 2400ft
Scattered Clouds 4400ft
1024 - ETNW 030720Z 28007KT 9999 FEW024 SCT044 11/11 Q1024 BLU+
VFR 10°C / 10°C 270º 8kt >10km - Few Clouds 2400ft
Broken Clouds 4400ft
1024 - ETNW 030620Z 27008KT 9999 FEW024 BKN044 10/10 Q1024 BLU
VFR 10°C / 10°C variable 0kt >10km - Few Clouds 2400ft
Scattered Clouds 4800ft
1024 - ETNW 030520Z 00000KT 9999 FEW024 SCT048 10/10 Q1024 BLU+
VFR 10°C / 10°C 290º 7kt >10km - Few Clouds 700ft
Scattered Clouds 4300ft
1023 - ETNW 030420Z 29007KT 9999 FEW007 SCT043 10/10 Q1023 BLU+
VFR 10°C / 10°C 270º 7kt >10km - Few Clouds 2300ft 1023 - ETNW 030320Z 27007KT 9999 FEW023 10/10 Q1023 BLU+
VFR 10°C / 10°C 280º 6kt >10km - Few Clouds 2300ft 1023 - ETNW 030220Z 28006KT 9999 FEW023 10/10 Q1023 BLU+
VFR 10°C / 10°C 280º 7kt >10km - Few Clouds 2600ft 1022 - ETNW 030120Z 28007KT 9999 FEW026 10/10 Q1022 BLU+

VFR

11°C / 9°C

[Περισσότερο]
Άνεμος 240º 2kt
Ορατότητα >10km
Καιρός -
Νέφη Scattered Clouds 14000ft
Broken Clouds 21000ft
Πίεση 1022
Αλλαγή -
Ανεπεξέργαστο ETNW 040220Z 24002KT 9999 SCT140 BKN210 11/09 Q1022 BLU+

VFR

11°C / 9°C

[Περισσότερο]
Άνεμος 240º 3kt
Ορατότητα >10km
Καιρός -
Νέφη Scattered Clouds 12000ft
Broken Clouds 21000ft
Πίεση 1022
Αλλαγή -
Ανεπεξέργαστο ETNW 040120Z 24003KT 9999 SCT120 BKN210 11/09 Q1022 BLU+

VFR

11°C / 9°C

[Περισσότερο]
Άνεμος 260º 4kt
Ορατότητα >10km
Καιρός -
Νέφη Few Clouds 15000ft
Broken Clouds 21000ft
Πίεση 1023
Αλλαγή -
Ανεπεξέργαστο ETNW 040020Z 26004KT 9999 FEW150 BKN210 11/09 Q1023 BLU+

VFR

10°C / 9°C

[Περισσότερο]
Άνεμος 270º 3kt
Ορατότητα >10km
Καιρός -
Νέφη Few Clouds 2800ft
Broken Clouds 20000ft
Πίεση 1023
Αλλαγή -
Ανεπεξέργαστο ETNW 032320Z 27003KT 9999 FEW028 BKN200 10/09 Q1023 BLU+

VFR

10°C / 10°C

[Περισσότερο]
Άνεμος 270º 4kt
Ορατότητα >10km
Καιρός -
Νέφη Scattered Clouds 2800ft
Broken Clouds 24000ft
Πίεση 1023
Αλλαγή -
Ανεπεξέργαστο ETNW 032220Z 27004KT 9999 SCT028 BKN240 10/10 Q1023 BLU+

VFR

11°C / 10°C

[Περισσότερο]
Άνεμος 260º 3kt
Ορατότητα >10km
Καιρός -
Νέφη Scattered Clouds 2800ft
Broken Clouds 21000ft
Πίεση 1024
Αλλαγή -
Ανεπεξέργαστο ETNW 032120Z 26003KT 9999 SCT028 BKN210 11/10 Q1024 BLU+

VFR

12°C / 10°C

[Περισσότερο]
Άνεμος 260º 4kt
Ορατότητα >10km
Καιρός -
Νέφη Scattered Clouds 3200ft
Broken Clouds 21000ft
Πίεση 1024
Αλλαγή -
Ανεπεξέργαστο ETNW 032020Z 26004KT 9999 SCT032 BKN210 12/10 Q1024 BLU+

VFR

12°C / 10°C

[Περισσότερο]
Άνεμος 250º 5kt
Ορατότητα >10km
Καιρός -
Νέφη Few Clouds 4800ft
Broken Clouds 7000ft
Broken Clouds 25000ft
Πίεση 1024
Αλλαγή -
Ανεπεξέργαστο ETNW 031920Z 25005KT 9999 FEW048 BKN070 BKN250 12/10 Q1024 BLU

VFR

13°C / 10°C

[Περισσότερο]
Άνεμος 260º 6kt
Ορατότητα >10km
Καιρός -
Νέφη Few Clouds 4800ft
Broken Clouds 7000ft
Broken Clouds 25000ft
Πίεση 1024
Αλλαγή -
Ανεπεξέργαστο ETNW 031820Z 26006KT 9999 FEW048 BKN070 BKN250 13/10 Q1024 BLU

VFR

14°C / 10°C

[Περισσότερο]
Άνεμος 270º 6kt
Ορατότητα >10km
Καιρός -
Νέφη Few Clouds 4800ft
Broken Clouds 7000ft
Broken Clouds 25000ft
Πίεση 1024
Αλλαγή -
Ανεπεξέργαστο ETNW 031720Z 27006KT 9999 FEW048 BKN070 BKN250 14/10 Q1024 BLU

VFR

16°C / 10°C

[Περισσότερο]
Άνεμος 280º 9kt
Ορατότητα >10km
Καιρός -
Νέφη Few Clouds 4800ft
Broken Clouds 7000ft
Broken Clouds 25000ft
Πίεση 1024
Αλλαγή -
Ανεπεξέργαστο ETNW 031520Z 28009KT 9999 FEW048 BKN070 BKN250 16/10 Q1024 BLU

VFR

16°C / 10°C

[Περισσότερο]
Άνεμος 280º 9kt
Ορατότητα >10km
Καιρός -
Νέφη Few Clouds 4800ft
Broken Clouds 6000ft
Πίεση 1024
Αλλαγή -
Ανεπεξέργαστο ETNW 031420Z 28009KT 9999 FEW048 BKN060 16/10 Q1024 BLU

VFR

16°C / 10°C

[Περισσότερο]
Άνεμος 290º 10kt
Ορατότητα >10km
Καιρός -
Νέφη Scattered Clouds 4800ft
Broken Clouds 6000ft
Πίεση 1025
Αλλαγή -
Ανεπεξέργαστο ETNW 031320Z 29010KT 9999 SCT048 BKN060 16/10 Q1025 BLU

VFR

16°C / 10°C

[Περισσότερο]
Άνεμος 290º 10kt
Ορατότητα >10km
Καιρός -
Νέφη Scattered Clouds 4400ft
Broken Clouds 5000ft
Πίεση 1025
Αλλαγή -
Ανεπεξέργαστο ETNW 031220Z 29010KT 9999 SCT044 BKN050 16/10 Q1025 BLU

VFR

16°C / 11°C

[Περισσότερο]
Άνεμος 280º 10kt
Ορατότητα >10km
Καιρός -
Νέφη Scattered Clouds 4400ft
Scattered Clouds 6000ft
Πίεση 1025
Αλλαγή -
Ανεπεξέργαστο ETNW 031020Z 28010KT 9999 SCT044 SCT060 16/11 Q1025 BLU+

VFR

14°C / 11°C

[Περισσότερο]
Άνεμος 280º 9kt
Ορατότητα >10km
Καιρός -
Νέφη Few Clouds 4200ft
Scattered Clouds 6000ft
Πίεση 1025
Αλλαγή -
Ανεπεξέργαστο ETNW 030920Z 28009KT 9999 FEW042 SCT060 14/11 Q1025 BLU+

VFR

13°C / 10°C

[Περισσότερο]
Άνεμος 290º 8kt
Ορατότητα >10km
Καιρός -
Νέφη Few Clouds 2400ft
Πίεση 1025
Αλλαγή -
Ανεπεξέργαστο ETNW 030820Z 29008KT 9999 FEW024 13/10 Q1025 BLU+

VFR

11°C / 11°C

[Περισσότερο]
Άνεμος 280º 7kt
Ορατότητα >10km
Καιρός -
Νέφη Few Clouds 2400ft
Scattered Clouds 4400ft
Πίεση 1024
Αλλαγή -
Ανεπεξέργαστο ETNW 030720Z 28007KT 9999 FEW024 SCT044 11/11 Q1024 BLU+

VFR

10°C / 10°C

[Περισσότερο]
Άνεμος 270º 8kt
Ορατότητα >10km
Καιρός -
Νέφη Few Clouds 2400ft
Broken Clouds 4400ft
Πίεση 1024
Αλλαγή -
Ανεπεξέργαστο ETNW 030620Z 27008KT 9999 FEW024 BKN044 10/10 Q1024 BLU

VFR

10°C / 10°C

[Περισσότερο]
Άνεμος variable 0kt
Ορατότητα >10km
Καιρός -
Νέφη Few Clouds 2400ft
Scattered Clouds 4800ft
Πίεση 1024
Αλλαγή -
Ανεπεξέργαστο ETNW 030520Z 00000KT 9999 FEW024 SCT048 10/10 Q1024 BLU+

VFR

10°C / 10°C

[Περισσότερο]
Άνεμος 290º 7kt
Ορατότητα >10km
Καιρός -
Νέφη Few Clouds 700ft
Scattered Clouds 4300ft
Πίεση 1023
Αλλαγή -
Ανεπεξέργαστο ETNW 030420Z 29007KT 9999 FEW007 SCT043 10/10 Q1023 BLU+

VFR

10°C / 10°C

[Περισσότερο]
Άνεμος 270º 7kt
Ορατότητα >10km
Καιρός -
Νέφη Few Clouds 2300ft
Πίεση 1023
Αλλαγή -
Ανεπεξέργαστο ETNW 030320Z 27007KT 9999 FEW023 10/10 Q1023 BLU+

VFR

10°C / 10°C

[Περισσότερο]
Άνεμος 280º 6kt
Ορατότητα >10km
Καιρός -
Νέφη Few Clouds 2300ft
Πίεση 1023
Αλλαγή -
Ανεπεξέργαστο ETNW 030220Z 28006KT 9999 FEW023 10/10 Q1023 BLU+

VFR

10°C / 10°C

[Περισσότερο]
Άνεμος 280º 7kt
Ορατότητα >10km
Καιρός -
Νέφη Few Clouds 2600ft
Πίεση 1022
Αλλαγή -
Ανεπεξέργαστο ETNW 030120Z 28007KT 9999 FEW026 10/10 Q1022 BLU+

TAF για Bordenau (ETNW)

From till


From till Wind 240º 4kt. Visibility 10km or more. Scattered Clouds 3000ft. Broken Clouds 14000ft.
Becoming from till Wind 210º 8kt. Visibility 10km or more. Broken Clouds 15000ft.

Ανεπεξέργαστο: TAF ETNW 032237Z 0323/0423 24004KT 9999 NSW SCT030 BKN140 BECMG 0408/0410 21008KT 9999 NSW BKN150 BY ETGL

rainNOW: Nowcast βροχής για Bordenau και περιφέρεια (25km ακτίνα)

0.0 χιλιοστά
0.0 χιλιοστά
0.0 χιλιοστά
0.0 χιλιοστά
0.0 χιλιοστά
0.0 χιλιοστά
0.0 χιλιοστά
0.0 χιλιοστά
0.0 χιλιοστά
0.0 χιλιοστά
0.0 χιλιοστά
0.0 χιλιοστά

Ραντάρ για Bordenau

Ψιλοβρέχει
Φως
Μέτρια
Βαριά
Πολύ βαρύ
Χαλάζι

Ο δείκτης θέσης τοποθετείται στο Bordenau. Αυτή η κινούμενη εικόνα δείχνει την ραντάρ βροχόπτωσης για την τελευταία ώρα, καθώς και 2πρόγνωση h. Το ψιλόβροχο ή το ελαφρύ χιόνι μπορεί να είναι αόρατο για το ραντάρ. Η ένταση της βροχόπτωσης είναι χρωματικά κωδικοποιημένη και κυμαίνεται από γαλάζιο έως πορτοκαλί.
Copyright 2022 Deutscher Wetterdienst / meteoblue.

Τρέχουσες εικόνες δορυφόρου και βροχής για Bordenau, Γερμανία

Η ένδειξη τοποθεσίας τοποθετείται στο Bordenau. [Περισσότερο]

Οι δορυφορικές εικόνες σε πραγματικό χρόνο συνδυάζουν ορατό φως κατά τη διάρκεια της ημέρας με υπέρυθρη ακτινοβολία κατά τη διάρκεια της νύχτας. Κατά τη διάρκεια της νύχτας, η εικόνα δεν είναι σκοτεινή μιας και η υπέρυθρη ακτινοβολία μπορεί να εντοπίσει τις διαφορές στη θερμοκρασία. Δυστυχώς, είναι δύσκολο να ξεχωρίσουν οι χαμηλές νεφώσεις και η ομίχλη από τις θερμοκρασίες εδάφους και έτσι μπορεί να είναι σχετικά αόρατα κατά τη διάρκεια της νύχτας. Οι εικόνες από τον δορυφόρο Meteosat για την Ευρώπη ενημερώνονται σε πραγματικό χρόνο κάθε 5 λεπτά. Οι εικόνες από τους δορυφόρους GOES-16/GOES-17 (Βόρεια & Λατινική Αμερική) και Himawari (Ασία) ενημερώνονται κάθε 10 λεπτά.

Η βροχόπτωση εκτιμάται από ραντάρ και δορυφόρους. Οι εκτιμήσεις βροχόπτωσης από τους δορυφόρους είναι λιγότερο ακριβείς τη νύχτα απ' ό,τι κατά τη διάρκεια της ημέρας. Με πορτοκαλί σταυροούς οι θέσεις όπου αστραπές εντοπίζονται (για Ευρώπη).

Πνευματική ιδιοκτησία 2022 EUMETSAT / meteoblue. Δεδομένα αστραπών παρεχόμενα από nowcast.

Επιστροφή στην κορυφή